createdAt,value
2022-08-11T00:01:28.728Z,22.30
2022-08-11T00:04:01.391Z,22.30
2022-08-11T00:06:31.741Z,22.20
2022-08-11T00:09:00.668Z,22.20
2022-08-11T00:12:00.197Z,22.10
2022-08-11T00:14:37.336Z,22.00
2022-08-11T00:17:06.596Z,22.00
2022-08-11T00:20:14.101Z,21.90
2022-08-11T00:22:29.674Z,21.90
2022-08-11T00:25:02.176Z,21.80
2022-08-11T00:27:37.018Z,21.80
2022-08-11T00:30:06.689Z,21.80
2022-08-11T00:32:34.456Z,21.70
2022-08-11T00:35:55.474Z,21.70
2022-08-11T00:37:52.544Z,21.60
2022-08-11T00:40:28.186Z,21.60
2022-08-11T00:43:20.329Z,21.60
2022-08-11T00:46:08.543Z,21.50
2022-08-11T00:49:12.927Z,21.50
2022-08-11T00:52:05.628Z,21.40
2022-08-11T00:54:57.178Z,21.40
2022-08-11T00:58:02.583Z,21.30
2022-08-11T01:00:42.626Z,21.20
2022-08-11T01:03:27.167Z,21.00
2022-08-11T01:06:04.517Z,21.10
2022-08-11T01:08:46.651Z,21.10
2022-08-11T01:11:38.980Z,21.10
2022-08-11T01:14:40.278Z,21.10
2022-08-11T01:17:44.355Z,21.10
2022-08-11T01:20:49.542Z,21.10
2022-08-11T01:23:47.616Z,20.90
2022-08-11T01:26:29.368Z,20.90
2022-08-11T01:29:05.143Z,21.00
2022-08-11T01:32:02.677Z,20.80
2022-08-11T01:34:48.534Z,20.80
2022-08-11T01:37:42.689Z,20.80
2022-08-11T01:40:42.631Z,20.70
2022-08-11T01:44:11.342Z,20.80
2022-08-11T01:47:02.491Z,20.70
2022-08-11T01:50:09.936Z,20.60
2022-08-11T01:52:45.806Z,20.60
2022-08-11T01:55:24.020Z,20.70
2022-08-11T01:57:56.500Z,20.60
2022-08-11T02:00:28.846Z,20.60
2022-08-11T02:03:29.444Z,20.60
2022-08-11T02:06:54.774Z,20.40
2022-08-11T02:09:49.516Z,20.50
2022-08-11T02:12:27.638Z,20.30
2022-08-11T02:15:20.943Z,20.20
2022-08-11T02:18:10.353Z,20.20
2022-08-11T02:21:06.300Z,20.20
2022-08-11T02:24:04.797Z,20.30
2022-08-11T02:26:45.894Z,20.30
2022-08-11T02:29:38.189Z,20.30
2022-08-11T02:32:31.150Z,20.10
2022-08-11T02:35:14.148Z,20.10
2022-08-11T02:37:52.739Z,20.20
2022-08-11T02:40:40.384Z,20.20
2022-08-11T02:43:25.903Z,20.10
2022-08-11T02:46:18.920Z,20.10
2022-08-11T02:49:22.152Z,20.10
2022-08-11T02:52:06.093Z,20.00
2022-08-11T02:54:56.852Z,20.00
2022-08-11T02:57:39.027Z,19.90
2022-08-11T03:00:17.690Z,19.80
2022-08-11T03:03:17.224Z,19.80
2022-08-11T03:05:55.734Z,19.80
2022-08-11T03:08:51.813Z,19.70
2022-08-11T03:11:57.436Z,19.80
2022-08-11T03:15:15.524Z,19.80
2022-08-11T03:18:03.971Z,19.80
2022-08-11T03:20:42.622Z,19.70
2022-08-11T03:23:19.904Z,19.60
2022-08-11T03:26:05.556Z,19.60
2022-08-11T03:28:53.379Z,19.60
2022-08-11T03:31:32.315Z,19.60
2022-08-11T03:34:12.638Z,19.60
2022-08-11T03:37:15.052Z,19.50
2022-08-11T03:39:55.519Z,19.60
2022-08-11T03:42:41.855Z,19.40
2022-08-11T03:45:08.531Z,19.30
2022-08-11T03:47:55.522Z,19.30
2022-08-11T03:50:55.656Z,19.30
2022-08-11T03:53:34.478Z,19.30
2022-08-11T03:56:29.442Z,19.40
2022-08-11T03:59:34.852Z,19.30
2022-08-11T04:02:19.315Z,19.30
2022-08-11T04:05:16.971Z,19.30
2022-08-11T04:08:05.949Z,19.20
2022-08-11T04:11:10.188Z,19.20
2022-08-11T04:14:32.574Z,19.10
2022-08-11T04:17:19.673Z,19.10
2022-08-11T04:20:19.003Z,19.00
2022-08-11T04:24:36.438Z,19.00
2022-08-11T04:26:46.449Z,19.10
2022-08-11T04:30:05.901Z,19.00
2022-08-11T04:33:11.443Z,19.00
2022-08-11T04:35:59.520Z,19.00
2022-08-11T04:38:58.666Z,19.00
2022-08-11T04:42:29.582Z,19.00
2022-08-11T04:44:58.288Z,19.00
2022-08-11T04:48:03.616Z,18.90
2022-08-11T04:51:41.682Z,18.90
2022-08-11T04:54:38.844Z,18.90
2022-08-11T04:57:36.008Z,18.90
2022-08-11T05:00:25.563Z,18.90
2022-08-11T05:03:10.106Z,18.80
2022-08-11T05:05:57.969Z,18.90
2022-08-11T05:08:49.651Z,18.90
2022-08-11T05:11:22.443Z,19.00
2022-08-11T05:14:38.941Z,19.10
2022-08-11T05:17:35.450Z,18.90
2022-08-11T05:20:20.893Z,19.00
2022-08-11T05:23:11.040Z,19.00
2022-08-11T05:26:42.954Z,19.10
2022-08-11T05:29:19.969Z,19.10
2022-08-11T05:32:17.466Z,19.10
2022-08-11T05:34:54.033Z,19.20
2022-08-11T05:37:34.386Z,19.10
2022-08-11T05:40:31.372Z,19.30
2022-08-11T05:43:23.461Z,19.30
2022-08-11T05:46:38.295Z,19.30
2022-08-11T05:49:28.423Z,19.30
2022-08-11T05:52:17.963Z,19.30
2022-08-11T05:55:06.962Z,19.40
2022-08-11T05:57:44.077Z,19.40
2022-08-11T06:00:18.404Z,19.50
2022-08-11T06:02:51.390Z,19.60
2022-08-11T06:05:19.522Z,19.70
2022-08-11T06:07:50.139Z,19.80
2022-08-11T06:10:35.566Z,19.90
2022-08-11T06:13:04.946Z,20.10
2022-08-11T06:15:34.696Z,20.30
2022-08-11T06:18:02.909Z,20.40
2022-08-11T06:20:36.811Z,20.60
2022-08-11T06:23:06.552Z,20.60
2022-08-11T06:25:35.751Z,20.90
2022-08-11T06:28:07.492Z,20.90
2022-08-11T06:30:40.705Z,21.00
2022-08-11T06:33:14.490Z,21.30
2022-08-11T06:35:53.183Z,21.20
2022-08-11T06:38:38.306Z,21.50
2022-08-11T06:41:30.772Z,21.30
2022-08-11T06:44:13.527Z,21.50
2022-08-11T06:46:51.053Z,21.70
2022-08-11T06:49:42.544Z,21.80
2022-08-11T06:52:34.943Z,22.00
2022-08-11T06:55:57.536Z,22.00
2022-08-11T06:58:41.173Z,22.10
2022-08-11T07:01:13.461Z,22.50
2022-08-11T07:03:58.312Z,22.80
2022-08-11T07:07:11.160Z,22.80
2022-08-11T07:10:31.757Z,23.00
2022-08-11T07:13:39.354Z,23.10
2022-08-11T07:16:13.067Z,23.00
2022-08-11T07:19:00.946Z,23.10
2022-08-11T07:22:02.914Z,23.40
2022-08-11T07:25:21.421Z,23.40
2022-08-11T07:28:14.999Z,23.30
2022-08-11T07:30:43.345Z,23.40
2022-08-11T07:33:11.676Z,23.60
2022-08-11T07:36:00.932Z,23.80
2022-08-11T07:38:47.185Z,23.70
2022-08-11T07:41:16.117Z,24.00
2022-08-11T07:43:49.519Z,24.20
2022-08-11T07:46:36.766Z,24.60
2022-08-11T07:49:24.186Z,24.30
2022-08-11T07:52:10.153Z,24.70
2022-08-11T07:54:38.120Z,24.80
2022-08-11T07:57:49.398Z,25.10
2022-08-11T08:00:32.839Z,25.30
2022-08-11T08:03:19.945Z,25.20
2022-08-11T08:06:15.232Z,25.30
2022-08-11T08:09:13.829Z,25.60
2022-08-11T08:11:59.718Z,25.80
2022-08-11T08:14:45.331Z,25.70
2022-08-11T08:17:30.757Z,25.80
2022-08-11T08:19:57.763Z,26.00
2022-08-11T08:22:37.731Z,25.90
2022-08-11T08:25:07.485Z,25.90
2022-08-11T08:27:36.036Z,26.10
2022-08-11T08:30:24.467Z,26.50
2022-08-11T08:32:52.706Z,26.50
2022-08-11T08:35:20.386Z,26.70
2022-08-11T08:37:49.637Z,26.40
2022-08-11T08:40:16.518Z,26.60
2022-08-11T08:42:56.294Z,27.00
2022-08-11T08:45:24.634Z,27.00
2022-08-11T08:48:03.444Z,26.80
2022-08-11T08:50:52.872Z,26.90
2022-08-11T08:53:24.321Z,27.40
2022-08-11T08:55:52.716Z,27.50
2022-08-11T08:58:21.801Z,27.40
2022-08-11T09:00:52.096Z,27.10
2022-08-11T09:06:07.237Z,26.90
2022-08-11T09:08:35.138Z,26.80
2022-08-11T09:11:23.137Z,27.30
2022-08-11T09:14:06.594Z,27.50
2022-08-11T09:16:36.145Z,27.60
2022-08-11T09:19:03.876Z,27.50
2022-08-11T09:21:48.193Z,27.40
2022-08-11T09:24:36.943Z,27.40
2022-08-11T09:27:07.955Z,27.30
2022-08-11T09:29:37.633Z,27.30
2022-08-11T09:32:07.137Z,27.40
2022-08-11T09:34:36.635Z,27.80
2022-08-11T09:37:54.385Z,27.60
2022-08-11T09:40:31.487Z,27.80
2022-08-11T09:43:22.364Z,28.00
2022-08-11T09:45:52.365Z,28.20
2022-08-11T09:48:22.334Z,28.00
2022-08-11T09:50:52.318Z,28.10
2022-08-11T09:53:37.747Z,28.00
2022-08-11T09:56:34.904Z,28.20
2022-08-11T09:59:02.170Z,28.20
2022-08-11T10:01:33.152Z,28.10
2022-08-11T10:04:05.436Z,28.40
2022-08-11T10:06:54.486Z,27.80
2022-08-11T10:09:25.030Z,27.80
2022-08-11T10:11:58.798Z,28.10
2022-08-11T10:14:46.346Z,28.20
2022-08-11T10:17:14.859Z,28.10
2022-08-11T10:19:43.455Z,28.40
2022-08-11T10:22:28.936Z,28.80
2022-08-11T10:25:20.017Z,28.70
2022-08-11T10:28:28.662Z,28.70
2022-08-11T10:31:06.830Z,28.60
2022-08-11T10:33:59.681Z,28.50
2022-08-11T10:36:30.796Z,28.60
2022-08-11T10:38:59.507Z,28.70
2022-08-11T10:42:06.758Z,28.90
2022-08-11T10:44:39.793Z,28.80
2022-08-11T10:47:26.515Z,28.70
2022-08-11T10:50:12.556Z,28.60
2022-08-11T10:52:58.970Z,28.70
2022-08-11T10:55:44.958Z,28.60
2022-08-11T10:58:31.348Z,28.80
2022-08-11T11:01:00.596Z,28.80
2022-08-11T11:03:29.929Z,28.70
2022-08-11T11:06:27.608Z,29.00
2022-08-11T11:09:06.956Z,29.00
2022-08-11T11:12:04.106Z,29.00
2022-08-11T11:14:56.483Z,29.10
2022-08-11T11:17:53.467Z,29.40
2022-08-11T11:20:36.587Z,29.00
2022-08-11T11:23:13.830Z,29.10
2022-08-11T11:25:40.495Z,29.00
2022-08-11T11:28:28.132Z,28.70
2022-08-11T11:31:07.996Z,28.60
2022-08-11T11:34:12.247Z,29.00
2022-08-11T11:36:50.509Z,29.10
2022-08-11T11:39:23.057Z,29.30
2022-08-11T11:41:53.535Z,29.30
2022-08-11T11:44:25.522Z,29.40
2022-08-11T11:46:53.304Z,29.30
2022-08-11T11:51:57.786Z,29.10
2022-08-11T11:54:34.213Z,29.00
2022-08-11T11:57:21.755Z,29.00
2022-08-11T12:00:11.129Z,29.30
2022-08-11T12:02:40.070Z,29.40
2022-08-11T12:05:09.438Z,29.40
2022-08-11T12:08:05.066Z,29.40
2022-08-11T12:11:10.980Z,29.60
2022-08-11T12:13:41.323Z,29.60
2022-08-11T12:16:34.190Z,29.40
2022-08-11T12:19:01.473Z,29.40
2022-08-11T12:21:29.375Z,29.40
2022-08-11T12:24:17.240Z,29.30
2022-08-11T12:27:16.184Z,29.50
2022-08-11T12:29:51.419Z,29.70
2022-08-11T12:32:23.144Z,29.60
2022-08-11T12:34:50.472Z,29.50
2022-08-11T12:37:30.055Z,29.60
2022-08-11T12:40:43.030Z,29.70
2022-08-11T12:43:38.936Z,29.40
2022-08-11T12:46:13.981Z,29.50
2022-08-11T12:49:05.507Z,29.60
2022-08-11T12:52:11.726Z,29.80
2022-08-11T12:54:47.225Z,29.80
2022-08-11T12:57:44.414Z,29.90
2022-08-11T13:00:30.357Z,30.00
2022-08-11T13:03:16.773Z,30.00
2022-08-11T13:05:45.820Z,29.90
2022-08-11T13:08:17.025Z,29.90
2022-08-11T13:11:04.121Z,30.00
2022-08-11T13:13:55.836Z,29.80
2022-08-11T13:16:20.547Z,29.80
2022-08-11T13:18:48.247Z,29.80
2022-08-11T13:21:20.174Z,29.80
2022-08-11T13:24:00.895Z,29.80
2022-08-11T13:26:43.340Z,29.70
2022-08-11T13:29:22.980Z,29.70
2022-08-11T13:31:50.681Z,29.90
2022-08-11T13:34:20.057Z,30.00
2022-08-11T13:36:52.110Z,29.90
2022-08-11T13:39:21.033Z,29.90
2022-08-11T13:41:50.946Z,29.90
2022-08-11T13:44:24.727Z,29.80
2022-08-11T13:47:01.620Z,29.90
2022-08-11T13:49:30.093Z,29.70
2022-08-11T13:51:59.053Z,29.70
2022-08-11T13:54:31.176Z,30.00
2022-08-11T13:57:01.960Z,30.10
2022-08-11T13:59:30.961Z,30.10
2022-08-11T14:02:22.110Z,30.30
2022-08-11T14:04:54.371Z,30.30
2022-08-11T14:07:23.985Z,30.10
2022-08-11T14:09:58.169Z,30.20
2022-08-11T14:12:47.637Z,30.10
2022-08-11T14:15:25.475Z,30.10
2022-08-11T14:18:01.600Z,30.20
2022-08-11T14:20:50.787Z,30.20
2022-08-11T14:23:20.416Z,30.10
2022-08-11T14:26:06.316Z,30.20
2022-08-11T14:28:41.510Z,30.20
2022-08-11T14:31:14.334Z,30.10
2022-08-11T14:33:59.642Z,30.20
2022-08-11T14:36:38.018Z,30.20
2022-08-11T14:39:17.139Z,30.20
2022-08-11T14:42:17.698Z,30.20
2022-08-11T14:45:03.708Z,30.20
2022-08-11T14:47:34.071Z,30.10
2022-08-11T14:50:10.000Z,30.30
2022-08-11T14:52:59.439Z,30.50
2022-08-11T14:55:48.271Z,30.50
2022-08-11T14:58:20.165Z,30.50
2022-08-11T15:00:49.731Z,30.70
2022-08-11T15:03:17.455Z,30.50
2022-08-11T15:05:58.351Z,30.30
2022-08-11T15:08:52.313Z,30.10
2022-08-11T15:11:41.385Z,30.10
2022-08-11T15:14:10.688Z,30.10
2022-08-11T15:16:59.463Z,30.00
2022-08-11T15:19:28.912Z,30.00
2022-08-11T15:22:24.888Z,30.10
2022-08-11T15:24:54.533Z,30.00
2022-08-11T15:27:41.356Z,30.30
2022-08-11T15:30:32.245Z,30.40
2022-08-11T15:33:20.586Z,30.30
2022-08-11T15:36:06.227Z,30.20
2022-08-11T15:38:36.300Z,30.30
2022-08-11T15:41:24.425Z,30.40
2022-08-11T15:44:13.045Z,30.40
2022-08-11T15:46:47.245Z,30.50
2022-08-11T15:49:22.390Z,30.40
2022-08-11T15:52:03.125Z,30.30
2022-08-11T15:54:33.634Z,30.40
2022-08-11T15:57:02.270Z,30.40
2022-08-11T15:59:52.916Z,30.40
2022-08-11T16:02:36.340Z,30.30
2022-08-11T16:05:08.282Z,30.10
2022-08-11T16:07:36.309Z,30.10
2022-08-11T16:10:18.826Z,30.10
2022-08-11T16:13:20.356Z,30.30
2022-08-11T16:16:15.069Z,30.00
2022-08-11T16:18:47.207Z,29.80
2022-08-11T16:21:34.069Z,29.90
2022-08-11T16:24:06.427Z,30.20
2022-08-11T16:27:08.861Z,30.20
2022-08-11T16:29:25.188Z,30.00
2022-08-11T16:32:14.399Z,30.30
2022-08-11T16:35:02.140Z,30.50
2022-08-11T16:37:49.848Z,30.40
2022-08-11T16:40:17.964Z,30.30
2022-08-11T16:43:10.599Z,30.20
2022-08-11T16:45:58.765Z,30.20
2022-08-11T16:48:35.829Z,30.20
2022-08-11T16:51:06.703Z,30.50
2022-08-11T16:53:59.821Z,30.20
2022-08-11T16:56:24.925Z,30.30
2022-08-11T16:59:14.549Z,30.20
2022-08-11T17:02:11.768Z,29.90
2022-08-11T17:05:03.085Z,29.80
2022-08-11T17:07:48.696Z,29.80
2022-08-11T17:10:55.667Z,30.00
2022-08-11T17:13:43.385Z,30.10
2022-08-11T17:16:12.708Z,30.20
2022-08-11T17:18:54.657Z,30.10
2022-08-11T17:21:57.287Z,30.20
2022-08-11T17:24:27.550Z,30.20
2022-08-11T17:26:58.566Z,30.00
2022-08-11T17:29:54.494Z,29.70
2022-08-11T17:33:05.726Z,29.90
2022-08-11T17:35:41.744Z,30.10
2022-08-11T17:38:17.932Z,30.20
2022-08-11T17:41:23.998Z,30.10
2022-08-11T17:44:11.946Z,30.10
2022-08-11T17:47:02.285Z,29.90
2022-08-11T17:49:37.226Z,29.70
2022-08-11T17:52:29.728Z,29.70
2022-08-11T17:55:51.572Z,29.60
2022-08-11T17:58:29.963Z,29.70
2022-08-11T18:01:02.003Z,29.70
2022-08-11T18:03:40.009Z,29.80
2022-08-11T18:06:12.591Z,29.60
2022-08-11T18:09:01.985Z,29.40
2022-08-11T18:12:09.939Z,29.30
2022-08-11T18:14:57.742Z,29.40
2022-08-11T18:17:43.238Z,29.40
2022-08-11T18:20:28.579Z,29.20
2022-08-11T18:23:16.217Z,29.30
2022-08-11T18:26:06.402Z,29.30
2022-08-11T18:29:01.990Z,29.30
2022-08-11T18:31:51.718Z,29.20
2022-08-11T18:34:43.425Z,29.10
2022-08-11T18:37:44.112Z,29.10
2022-08-11T18:40:40.211Z,29.10
2022-08-11T18:43:28.624Z,28.90
2022-08-11T18:46:23.212Z,28.90
2022-08-11T18:49:16.513Z,28.80
2022-08-11T18:52:07.909Z,28.70
2022-08-11T18:54:55.795Z,28.70
2022-08-11T18:57:49.528Z,28.70
2022-08-11T19:00:41.082Z,28.60
2022-08-11T19:03:28.429Z,28.50
2022-08-11T19:06:38.053Z,28.40
2022-08-11T19:09:30.433Z,28.30
2022-08-11T19:12:17.378Z,28.20
2022-08-11T19:15:04.763Z,28.10
2022-08-11T19:17:52.734Z,27.90
2022-08-11T19:20:43.810Z,27.90
2022-08-11T19:23:30.846Z,28.10
2022-08-11T19:26:17.587Z,27.90
2022-08-11T19:29:05.519Z,27.80
2022-08-11T19:31:51.997Z,27.80
2022-08-11T19:34:40.488Z,27.70
2022-08-11T19:37:27.091Z,27.50
2022-08-11T19:40:16.554Z,27.40
2022-08-11T19:43:02.663Z,27.40
2022-08-11T19:45:52.760Z,27.40
2022-08-11T19:48:41.654Z,27.50
2022-08-11T19:51:28.929Z,27.30
2022-08-11T19:54:16.004Z,27.30
2022-08-11T19:57:02.562Z,27.20
2022-08-11T19:59:49.513Z,27.10
2022-08-11T20:02:35.171Z,26.90
2022-08-11T20:05:21.152Z,26.90
2022-08-11T20:08:07.724Z,26.80
2022-08-11T20:10:55.730Z,26.90
2022-08-11T20:13:43.821Z,26.60
2022-08-11T20:16:32.295Z,26.50
2022-08-11T20:19:19.601Z,26.50
2022-08-11T20:22:14.728Z,26.60
2022-08-11T20:25:02.260Z,26.70
2022-08-11T20:27:50.246Z,26.60
2022-08-11T20:30:38.224Z,26.40
2022-08-11T20:33:24.226Z,26.40
2022-08-11T20:36:10.232Z,26.30
2022-08-11T20:38:56.817Z,26.40
2022-08-11T20:41:49.230Z,26.30
2022-08-11T20:44:45.564Z,26.30
2022-08-11T20:47:32.898Z,26.20
2022-08-11T20:50:38.935Z,26.20
2022-08-11T20:53:26.798Z,26.20
2022-08-11T20:56:17.209Z,26.10
2022-08-11T20:59:21.752Z,26.00
2022-08-11T21:02:10.528Z,25.80
2022-08-11T21:05:00.214Z,25.80
2022-08-11T21:07:56.856Z,25.70
2022-08-11T21:10:51.160Z,25.60
2022-08-11T21:13:39.429Z,25.60
2022-08-11T21:16:27.450Z,25.30
2022-08-11T21:20:01.416Z,25.10
2022-08-11T21:22:30.662Z,25.10
2022-08-11T21:25:18.126Z,25.10
2022-08-11T21:28:05.548Z,24.80
2022-08-11T21:30:52.023Z,24.90
2022-08-11T21:33:45.599Z,24.90
2022-08-11T21:36:31.735Z,24.70
2022-08-11T21:39:17.710Z,24.60
2022-08-11T21:42:09.170Z,24.60
2022-08-11T21:44:56.071Z,24.40
2022-08-11T21:47:44.276Z,24.30
2022-08-11T21:50:30.153Z,24.20
2022-08-11T21:53:18.016Z,24.30
2022-08-11T21:56:04.516Z,24.10
2022-08-11T21:58:51.040Z,24.20
2022-08-11T22:01:37.542Z,24.20
2022-08-11T22:04:23.890Z,24.20
2022-08-11T22:07:10.429Z,23.90
2022-08-11T22:09:56.063Z,24.00
2022-08-11T22:12:45.059Z,23.90
2022-08-11T22:15:31.077Z,24.00
2022-08-11T22:18:16.478Z,23.80
2022-08-11T22:21:03.079Z,23.90
2022-08-11T22:23:51.472Z,23.90
2022-08-11T22:26:37.527Z,23.80
2022-08-11T22:29:41.350Z,23.70
2022-08-11T22:32:35.853Z,23.60
2022-08-11T22:35:22.227Z,23.60
2022-08-11T22:38:08.747Z,23.50
2022-08-11T22:40:55.190Z,23.20
2022-08-11T22:43:40.689Z,23.00
2022-08-11T22:46:27.048Z,23.10
2022-08-11T22:49:14.052Z,23.00
2022-08-11T22:52:01.481Z,23.00
2022-08-11T22:54:49.054Z,23.10
2022-08-11T22:57:34.620Z,23.20
2022-08-11T23:00:20.156Z,23.10
2022-08-11T23:03:06.202Z,23.10
2022-08-11T23:05:56.646Z,23.10
2022-08-11T23:08:42.107Z,23.00
2022-08-11T23:11:27.465Z,23.00
2022-08-11T23:14:33.199Z,22.80
2022-08-11T23:17:19.317Z,22.70
2022-08-11T23:20:21.433Z,22.40
2022-08-11T23:23:11.071Z,22.30
2022-08-11T23:25:58.946Z,22.30
2022-08-11T23:28:46.469Z,22.30
2022-08-11T23:31:50.816Z,22.50
2022-08-11T23:35:37.320Z,22.40
2022-08-11T23:37:49.007Z,22.30
2022-08-11T23:40:34.351Z,22.30
2022-08-11T23:43:20.251Z,22.30
2022-08-11T23:48:55.426Z,22.30
2022-08-11T23:51:41.757Z,22.40
2022-08-11T23:54:28.268Z,22.30
2022-08-11T23:57:14.126Z,22.00
2022-08-11T23:59:59.573Z,22.10
